Aérodrome :
LOGIN :

S'inscrire | Disclaimer

   EN    FR    IT 

 










Légende :    VFR   VFR Marginal   IFR   IFR Intensif   IFR Très Intensif
Visi : 
Plafond : 
>= 8 km
>= 3000ft
5 à 8 km
1000 à 3000 ft
1500m à 5 km
500 à 1000 ft
800 à 1500m
200 à 500 ft
< 800m
< 200 ft
Symboles :   Orages  Brouillard  Fortes neiges  Fortes précipitations  Vent > 20 kt
SIGMETs :   Divers  Orages  Givrage  Turbulence  Onde Orograph.  Cendres Volcan.






- Altitude de l'aérodrome : 204 ft
- Code IATA : AGF


LFBA - Agen

DERNIER METAR :
  • 101030Z AUTO VRB03KT 0300 0250 R29/0350U FG VV/// 04/03 Q1030 BECMG CAVOK

METARs EXPIRÉS :
  • 101000Z AUTO 08003KT 060V120 0300 0250 R29/0250N FG VV/// 03/02 Q1030 BECMG CAVOK
  • 100930Z AUTO 10005KT 0300 0250 R29/0250N FG VV/// 03/02 Q1030 BECMG CAVOK
  • 100900Z AUTO 11005KT 0300 0250 R29/0250N FG VV/// 02/01 Q1030 BECMG CAVOK
  • 100830Z AUTO 08002KT 0500 0400 R29/0550N FG VV/// 01/00 Q1031 BECMG CAVOK
  • 100800Z AUTO 11003KT 0300 0200 R29/0225N FG VV/// 01/M00 Q1031 BECMG CAVOK

TAF AMD TAF LFBA
Valide du 10 à 10h jusqu'au 10 à 18h UTC


101009Z 1010/1018 12004KT CAVOK
PROB30
TEMPO 1010/1011 0200 FG VV///



MET'MAP, la Météo Aéronautique d'un coup d'oeil ! - Copyright ORBIFLY Décembre 2007 - Disclaimer

ORBIFLY MET'MAP TEAM :

Programmation & Développement : Alexandra Zaïnal
Sur une idée originale de : Baudouin d'Aumeries
Assistance à la programmation : Marc-Olivier Méhu
Soutien technique & logistique : Manuel Goepfert

Contact : metmap@orbifly.com




SOURCES & CREDITS :

   NOAA